createdAt,value
2022-09-28T00:03:36.670Z,98220.58
2022-09-28T00:08:39.259Z,98216.59
2022-09-28T00:13:42.833Z,98215.59
2022-09-28T00:18:45.842Z,98207.20
2022-09-28T00:23:53.927Z,98199.17
2022-09-28T00:28:59.065Z,98193.82
2022-09-28T00:34:04.771Z,98189.20
2022-09-28T00:39:11.633Z,98186.21
2022-09-28T00:44:17.098Z,98185.05
2022-09-28T00:49:22.988Z,98176.08
2022-09-28T00:54:26.039Z,98174.82
2022-09-28T00:59:29.193Z,98173.46
2022-09-28T01:04:33.202Z,98170.43
2022-09-28T01:09:38.188Z,98162.67
2022-09-28T01:14:41.154Z,98162.09
2022-09-28T01:19:46.506Z,98161.64
2022-09-28T01:24:56.103Z,98155.05
2022-09-28T01:30:01.569Z,98148.42
2022-09-28T01:35:06.938Z,98145.16
2022-09-28T01:40:09.994Z,98144.20
2022-09-28T01:45:18.191Z,98143.23
2022-09-28T01:50:22.694Z,98141.20
2022-09-28T01:55:31.554Z,98138.13
2022-09-28T02:00:36.025Z,98137.42
2022-09-28T02:05:40.941Z,98132.73
2022-09-28T02:10:46.293Z,98133.00
2022-09-28T02:15:51.691Z,98135.10
2022-09-28T02:20:57.463Z,98136.45
2022-09-28T02:26:02.071Z,98138.62
2022-09-28T02:31:04.617Z,98148.96
2022-09-28T02:36:07.225Z,98148.56
2022-09-28T02:41:12.585Z,98152.51
2022-09-28T02:46:15.502Z,98151.66
2022-09-28T02:51:17.923Z,98149.79
2022-09-28T02:56:22.873Z,98147.67
2022-09-28T03:01:33.291Z,98146.79
2022-09-28T03:06:38.612Z,98146.55
2022-09-28T03:11:45.775Z,98146.48
2022-09-28T03:16:48.406Z,98144.99
2022-09-28T03:21:50.884Z,98141.71
2022-09-28T03:26:53.317Z,98147.55
2022-09-28T03:31:55.782Z,98150.41
2022-09-28T03:36:58.409Z,98146.96
2022-09-28T03:42:01.300Z,98142.93
2022-09-28T03:47:03.745Z,98142.85
2022-09-28T03:52:06.181Z,98146.52
2022-09-28T03:57:09.139Z,98140.66
2022-09-28T04:02:11.614Z,98136.92
2022-09-28T04:07:14.125Z,98134.58
2022-09-28T04:12:16.625Z,98137.73
2022-09-28T04:17:19.195Z,98135.41
2022-09-28T04:22:21.635Z,98133.18
2022-09-28T04:27:26.986Z,98131.33
2022-09-28T04:32:29.413Z,98130.94
2022-09-28T04:37:32.138Z,98124.65
2022-09-28T04:42:34.538Z,98126.80
2022-09-28T04:47:36.943Z,98121.35
2022-09-28T04:52:39.350Z,98124.48
2022-09-28T04:57:41.825Z,98115.23
2022-09-28T05:02:44.713Z,98118.18
2022-09-28T05:07:47.343Z,98115.08
2022-09-28T05:12:49.730Z,98107.47
2022-09-28T05:17:52.573Z,98113.88
2022-09-28T05:22:55.101Z,98111.30
2022-09-28T05:27:57.978Z,98106.19
2022-09-28T05:33:00.375Z,98101.95
2022-09-28T05:38:03.967Z,98098.70
2022-09-28T05:43:06.420Z,98097.02
2022-09-28T05:48:09.169Z,98107.81
2022-09-28T05:53:11.643Z,98108.14
2022-09-28T05:58:14.300Z,98108.11
2022-09-28T06:03:16.797Z,98107.40
2022-09-28T06:14:59.963Z,98107.45
2022-09-28T06:20:04.238Z,98100.92
2022-09-28T06:25:08.468Z,98097.33
2022-09-28T06:30:11.319Z,98095.48
2022-09-28T06:35:15.827Z,98098.30
2022-09-28T06:40:18.769Z,98099.77
2022-09-28T06:45:24.427Z,98098.61
2022-09-28T06:50:37.375Z,98096.14
2022-09-28T06:55:40.719Z,98095.12
2022-09-28T07:00:43.578Z,98095.86
2022-09-28T07:11:39.542Z,98089.93
2022-09-28T07:17:10.065Z,98089.86
2022-09-28T07:22:05.648Z,98095.25
2022-09-28T07:27:08.771Z,98096.98
2022-09-28T07:32:11.182Z,98096.60
2022-09-28T07:37:13.795Z,98102.02
2022-09-28T07:42:16.705Z,98107.35
2022-09-28T07:47:30.777Z,98114.58
2022-09-28T07:52:36.136Z,98111.95
2022-09-28T07:57:40.122Z,98117.50
2022-09-28T08:02:42.782Z,98113.65
2022-09-28T08:07:45.556Z,98124.70
2022-09-28T08:12:48.163Z,98125.33
2022-09-28T08:17:51.485Z,98128.70
2022-09-28T08:22:54.227Z,98130.72
2022-09-28T08:27:56.903Z,98122.50
2022-09-28T08:32:59.455Z,98123.53
2022-09-28T08:38:03.353Z,98114.16
2022-09-28T08:43:14.503Z,98121.45
2022-09-28T08:48:24.638Z,98118.48
2022-09-28T08:53:27.020Z,98126.66
2022-09-28T08:58:32.906Z,98126.96
2022-09-28T09:03:37.646Z,98133.31
2022-09-28T09:08:40.999Z,98133.77
2022-09-28T09:13:45.673Z,98139.91
2022-09-28T09:18:54.374Z,98138.80
2022-09-28T09:24:03.509Z,98146.59
2022-09-28T09:29:09.872Z,98159.64
2022-09-28T09:34:15.443Z,98167.88
2022-09-28T09:39:27.616Z,98170.86
2022-09-28T09:44:39.800Z,98174.64
2022-09-28T09:56:36.132Z,98181.04
2022-09-28T10:01:40.684Z,98186.35
2022-09-28T10:06:43.576Z,98188.14
2022-09-28T10:11:50.091Z,98190.11
2022-09-28T10:16:53.771Z,98199.66
2022-09-28T10:21:58.435Z,98195.85
2022-09-28T10:27:04.360Z,98195.80
2022-09-28T10:32:17.566Z,98198.93
2022-09-28T10:37:20.011Z,98195.30
2022-09-28T10:42:25.944Z,98198.11
2022-09-28T10:47:31.235Z,98200.55
2022-09-28T10:52:33.630Z,98196.06
2022-09-28T10:57:36.717Z,98194.67
2022-09-28T11:02:40.202Z,98203.93
2022-09-28T11:07:46.895Z,98205.67
2022-09-28T11:12:49.644Z,98209.15
2022-09-28T11:17:52.385Z,98220.84
2022-09-28T11:22:55.750Z,98228.47
2022-09-28T11:27:59.918Z,98231.58
2022-09-28T11:33:05.266Z,98230.51
2022-09-28T11:38:10.669Z,98228.80
2022-09-28T11:43:16.871Z,98228.18
2022-09-28T11:48:23.775Z,98226.91
2022-09-28T11:53:31.395Z,98217.70
2022-09-28T11:58:36.771Z,98215.12
2022-09-28T12:03:41.115Z,98217.36
2022-09-28T12:08:49.195Z,98225.63
2022-09-28T12:13:54.078Z,98223.00
2022-09-28T12:19:03.849Z,98226.69
2022-09-28T12:24:09.248Z,98233.80
2022-09-28T12:29:14.535Z,98228.73
2022-09-28T12:34:17.138Z,98228.33
2022-09-28T12:39:46.691Z,98233.66
2022-09-28T12:44:59.456Z,98238.81
2022-09-28T12:50:37.692Z,98242.11
2022-09-28T12:55:30.418Z,98243.38
2022-09-28T13:00:35.952Z,98242.39
2022-09-28T13:05:41.260Z,98240.17
2022-09-28T13:10:55.190Z,98243.02
2022-09-28T13:15:58.740Z,98246.30
2022-09-28T13:21:04.702Z,98247.67
2022-09-28T13:26:13.957Z,98245.71
2022-09-28T13:31:20.247Z,98245.58
2022-09-28T13:36:27.845Z,98246.83
2022-09-28T13:41:33.991Z,98256.10
2022-09-28T13:46:39.347Z,98260.56
2022-09-28T13:51:49.785Z,98260.83
2022-09-28T13:56:54.870Z,98256.73
2022-09-28T14:02:06.631Z,98259.79
2022-09-28T14:07:15.198Z,98257.05
2022-09-28T14:12:20.653Z,98262.52
2022-09-28T14:17:25.488Z,98262.16
2022-09-28T14:22:34.569Z,98265.65
2022-09-28T14:27:40.108Z,98270.57
2022-09-28T14:32:48.496Z,98272.11
2022-09-28T14:37:56.597Z,98271.34
2022-09-28T14:43:01.939Z,98281.13
2022-09-28T14:48:11.452Z,98283.92
2022-09-28T14:53:19.482Z,98280.88
2022-09-28T14:58:24.892Z,98285.42
2022-09-28T15:03:28.864Z,98293.04
2022-09-28T15:08:35.264Z,98297.43
2022-09-28T15:13:40.781Z,98298.52
2022-09-28T15:18:46.105Z,98306.23
2022-09-28T15:23:49.723Z,98301.70
2022-09-28T15:28:52.161Z,98302.69
2022-09-28T15:33:57.651Z,98301.30
2022-09-28T15:39:01.371Z,98292.52
2022-09-28T15:44:07.177Z,98288.59
2022-09-28T15:49:12.647Z,98288.59
2022-09-28T15:54:19.340Z,98301.84
2022-09-28T15:59:26.204Z,98302.89
2022-09-28T16:04:31.574Z,98304.36
2022-09-28T16:09:38.924Z,98299.94
2022-09-28T16:14:47.595Z,98299.30
2022-09-28T16:19:50.088Z,98302.41
2022-09-28T16:24:54.951Z,98294.36
2022-09-28T16:30:05.066Z,98297.73
2022-09-28T16:35:10.747Z,98299.21
2022-09-28T16:40:13.724Z,98300.91
2022-09-28T16:45:17.997Z,98303.76
2022-09-28T16:50:21.179Z,98301.06
2022-09-28T16:55:39.612Z,98302.55
2022-09-28T17:00:43.404Z,98300.13
2022-09-28T17:05:47.872Z,98298.10
2022-09-28T17:11:13.799Z,98299.02
2022-09-28T17:16:18.313Z,98293.48
2022-09-28T17:21:20.802Z,98295.66
2022-09-28T17:26:27.787Z,98296.30
2022-09-28T17:31:30.422Z,98295.48
2022-09-28T17:36:32.852Z,98300.15
2022-09-28T17:41:37.208Z,98289.96
2022-09-28T17:46:45.753Z,98283.34
2022-09-28T17:51:50.037Z,98279.81
2022-09-28T17:56:52.442Z,98279.92
2022-09-28T18:01:54.897Z,98281.23
2022-09-28T18:06:57.566Z,98283.82
2022-09-28T18:12:01.008Z,98290.71
2022-09-28T18:17:03.639Z,98287.39
2022-09-28T18:22:06.080Z,98294.31
2022-09-28T18:27:08.552Z,98290.80
2022-09-28T18:32:11.137Z,98291.50
2022-09-28T18:37:13.634Z,98292.43
2022-09-28T18:42:16.314Z,98290.21
2022-09-28T18:47:19.119Z,98285.38
2022-09-28T18:52:21.569Z,98286.67
2022-09-28T18:57:24.221Z,98289.55
2022-09-28T19:02:27.306Z,98288.16
2022-09-28T19:07:31.218Z,98291.98
2022-09-28T19:12:33.730Z,98290.16
2022-09-28T19:17:36.234Z,98289.21
2022-09-28T19:22:38.725Z,98275.67
2022-09-28T19:27:41.316Z,98277.29
2022-09-28T19:32:44.115Z,98281.36
2022-09-28T19:37:46.708Z,98290.59
2022-09-28T19:42:49.260Z,98301.31
2022-09-28T19:47:55.095Z,98309.06
2022-09-28T19:53:01.669Z,98307.59
2022-09-28T19:58:04.187Z,98311.45
2022-09-28T20:03:06.755Z,98318.52
2022-09-28T20:08:09.717Z,98314.91
2022-09-28T20:13:12.219Z,98326.33
2022-09-28T20:18:15.222Z,98328.62
2022-09-28T20:23:17.898Z,98330.48
2022-09-28T20:28:20.356Z,98339.45
2022-09-28T20:33:28.840Z,98341.34
2022-09-28T20:38:31.572Z,98346.20
2022-09-28T20:43:34.866Z,98343.69
2022-09-28T20:48:37.309Z,98345.37
2022-09-28T20:53:40.401Z,98345.99
2022-09-28T20:58:42.870Z,98343.73
2022-09-28T21:03:48.639Z,98342.21
2022-09-28T21:08:51.617Z,98336.91
2022-09-28T21:13:55.089Z,98333.38
2022-09-28T21:18:58.098Z,98336.30
2022-09-28T21:24:00.730Z,98342.23
2022-09-28T21:29:05.743Z,98343.80
2022-09-28T21:34:13.348Z,98343.38
2022-09-28T21:39:15.974Z,98344.52
2022-09-28T21:44:18.653Z,98344.77
2022-09-28T21:49:21.293Z,98339.58
2022-09-28T21:54:23.794Z,98335.21
2022-09-28T21:59:26.283Z,98329.53
2022-09-28T22:04:28.751Z,98331.54
2022-09-28T22:09:31.404Z,98330.61
2022-09-28T22:14:33.882Z,98332.29
2022-09-28T22:19:36.375Z,98332.42
2022-09-28T22:24:38.903Z,98337.05
2022-09-28T22:29:42.051Z,98336.14
2022-09-28T22:34:44.540Z,98339.79
2022-09-28T22:39:47.354Z,98338.17
2022-09-28T22:44:49.910Z,98335.14
2022-09-28T22:49:52.352Z,98338.35
2022-09-28T22:54:54.783Z,98338.63
2022-09-28T22:59:57.329Z,98333.52
2022-09-28T23:04:59.770Z,98337.83
2022-09-28T23:10:02.211Z,98331.94
2022-09-28T23:15:05.667Z,98330.09
2022-09-28T23:20:08.449Z,98330.58
2022-09-28T23:25:10.884Z,98331.56
2022-09-28T23:30:13.852Z,98333.30
2022-09-28T23:35:16.335Z,98332.48
2022-09-28T23:40:20.007Z,98338.98
2022-09-28T23:45:22.579Z,98340.34
2022-09-28T23:50:25.109Z,98338.91
2022-09-28T23:55:27.703Z,98337.20
